Time;durP1;ratioP1;P1;durP2;ratioP2;P2;SDS_P1;SDS_P2;PMS_P1;PMS_P2;Temp;Humidity;BMP_temperature;BMP_pressure;BME280_temperature;BME280_humidity;BME280_pressure;Samples;Min_cycle;Max_cycle;Signal;HPM_P1;HPM_P2
2023/06/25 00:01:43;;;;;;;11.73;8.85;;;;;;;20.88;100.00;102004.09;5089150;28;20453;-37
2023/06/25 00:04:10;;;;;;;9.60;8.70;;;;;;;20.76;100.00;102007.94;5089107;28;20112;-37
2023/06/25 00:06:35;;;;;;;9.75;8.80;;;;;;;20.78;100.00;102002.16;5089076;28;20040;-37
2023/06/25 00:09:01;;;;;;;9.93;8.55;;;;;;;20.84;100.00;102003.84;5089420;28;20024;-37
2023/06/25 00:11:26;;;;;;;10.60;9.00;;;;;;;20.78;100.00;101986.50;5079292;28;20025;-37
2023/06/25 00:13:53;;;;;;;10.30;8.77;;;;;;;20.63;100.00;101974.66;5075197;28;20098;-37
2023/06/25 00:16:19;;;;;;;9.88;8.90;;;;;;;20.65;100.00;101986.22;5075609;28;20115;-37
2023/06/25 00:18:47;;;;;;;9.95;8.95;;;;;;;20.60;100.00;101994.44;5075498;28;20174;-38
2023/06/25 00:21:13;;;;;;;11.15;9.93;;;;;;;20.40;100.00;101995.13;5075289;28;20039;-38
2023/06/25 00:23:38;;;;;;;9.77;8.68;;;;;;;20.41;100.00;101985.81;5075530;28;20073;-37
2023/06/25 00:26:04;;;;;;;9.60;8.70;;;;;;;20.35;100.00;101987.72;5075351;28;20031;-36
2023/06/25 00:28:29;;;;;;;10.50;8.50;;;;;;;20.35;100.00;101967.66;5075158;28;20027;-37
2023/06/25 00:30:54;;;;;;;10.20;9.05;;;;;;;20.31;100.00;101978.38;5075538;28;20025;-37
2023/06/25 00:33:20;;;;;;;10.38;9.38;;;;;;;20.33;100.00;101987.16;5075136;28;20024;-37
2023/06/25 00:35:51;;;;;;;10.65;9.55;;;;;;;20.31;100.00;101981.94;5075414;28;20115;-37
2023/06/25 00:38:18;;;;;;;10.15;9.15;;;;;;;20.35;100.00;101979.50;5074648;28;20043;-37
2023/06/25 00:40:44;;;;;;;11.70;10.02;;;;;;;20.36;100.00;101975.66;5074689;28;20468;-37
2023/06/25 00:43:09;;;;;;;10.45;9.05;;;;;;;20.35;100.00;101971.25;5075300;28;20040;-37
2023/06/25 00:45:34;;;;;;;12.25;10.00;;;;;;;20.12;100.00;101964.28;5074631;28;20114;-37
2023/06/25 00:48:01;;;;;;;10.48;9.45;;;;;;;20.10;100.00;101968.38;5074826;28;20115;-37
2023/06/25 00:50:27;;;;;;;11.98;9.68;;;;;;;20.15;100.00;101969.22;5075106;28;20117;-37
2023/06/25 00:52:53;;;;;;;9.73;8.45;;;;;;;20.11;100.00;101970.88;5075259;28;20067;-37
2023/06/25 00:55:19;;;;;;;10.23;9.18;;;;;;;20.03;100.00;101968.63;5074710;28;20039;-37
2023/06/25 00:57:45;;;;;;;10.15;9.15;;;;;;;19.98;100.00;101961.19;5074415;28;20024;-37
2023/06/25 01:00:15;;;;;;;11.23;9.07;;;;;;;19.91;100.00;101960.63;5074493;28;20072;-37
2023/06/25 01:02:50;;;;;;;10.90;9.60;;;;;;;19.92;100.00;101962.28;5075222;28;20081;-37
2023/06/25 01:05:27;;;;;;;9.82;8.93;;;;;;;19.91;100.00;101957.03;5075317;28;20064;-37
2023/06/25 01:07:57;;;;;;;11.30;9.57;;;;;;;19.88;100.00;101949.34;5075100;28;20121;-37
2023/06/25 01:10:23;;;;;;;11.73;9.85;;;;;;;19.90;100.00;101945.22;5074343;28;20032;-37
2023/06/25 01:12:48;;;;;;;10.52;9.45;;;;;;;19.76;100.00;101939.41;5075071;28;20029;-37
2023/06/25 01:15:14;;;;;;;10.60;9.48;;;;;;;19.87;100.00;101947.69;5074306;28;20399;-37
2023/06/25 01:17:39;;;;;;;11.13;10.02;;;;;;;19.70;100.00;101945.94;5074813;28;20034;-37
2023/06/25 01:20:09;;;;;;;13.90;9.77;;;;;;;19.67;100.00;101946.50;5074773;28;20107;-37
2023/06/25 01:22:34;;;;;;;11.00;9.88;;;;;;;19.68;100.00;101947.31;5073252;28;20024;-37
2023/06/25 01:25:00;;;;;;;10.48;9.38;;;;;;;19.60;100.00;101940.41;5073991;28;20099;-37
2023/06/25 01:27:26;;;;;;;10.88;9.80;;;;;;;19.59;100.00;101949.69;5074058;28;20067;-37
2023/06/25 01:29:51;;;;;;;10.35;9.35;;;;;;;19.58;100.00;101937.06;5073974;28;20036;-37
2023/06/25 01:32:18;;;;;;;11.05;10.00;;;;;;;19.50;100.00;101932.06;5073995;28;20464;-37
2023/06/25 01:34:44;;;;;;;11.15;9.95;;;;;;;19.60;100.00;101934.91;5073909;28;20086;-37
2023/06/25 01:37:09;;;;;;;10.65;9.30;;;;;;;19.48;100.00;101931.53;5073909;28;20028;-37
2023/06/25 01:39:35;;;;;;;10.55;9.45;;;;;;;19.43;100.00;101926.00;5073483;28;20036;-37
2023/06/25 01:42:00;;;;;;;10.45;9.23;;;;;;;19.44;100.00;101927.66;5073563;28;20041;-37
2023/06/25 01:44:31;;;;;;;11.10;10.00;;;;;;;19.46;100.00;101933.69;5073664;28;20032;-37
2023/06/25 01:46:58;;;;;;;12.25;9.60;;;;;;;19.49;100.00;101916.72;5074167;28;20468;-37
2023/06/25 01:49:24;;;;;;;11.35;10.23;;;;;;;19.37;100.00;101913.31;5073890;28;20153;-37
2023/06/25 01:51:50;;;;;;;10.80;9.70;;;;;;;19.39;100.00;101917.47;5073538;28;20028;-37
2023/06/25 01:54:15;;;;;;;10.98;9.82;;;;;;;19.28;100.00;101916.56;5073670;28;20078;-37
2023/06/25 01:56:42;;;;;;;11.00;9.90;;;;;;;19.35;100.00;101907.28;5072883;28;20179;-37
2023/06/25 01:59:07;;;;;;;11.07;9.98;;;;;;;19.28;100.00;101908.34;5073339;28;20160;-37
2023/06/25 02:01:32;;;;;;;10.63;9.48;;;;;;;19.31;100.00;101909.72;5073705;28;20449;-37
2023/06/25 02:03:58;;;;;;;10.85;9.57;;;;;;;19.25;100.00;101899.81;5073350;28;20113;-37
2023/06/25 02:06:23;;;;;;;15.50;10.27;;;;;;;19.18;100.00;101900.06;5073632;28;20465;-37
2023/06/25 02:08:48;;;;;;;10.65;9.57;;;;;;;19.14;100.00;101893.44;5072972;28;20082;-37
2023/06/25 02:11:14;;;;;;;10.68;9.60;;;;;;;19.11;100.00;101896.69;5073511;28;20064;-37
2023/06/25 02:13:39;;;;;;;11.20;10.00;;;;;;;19.08;100.00;101889.00;5073185;28;20392;-37
2023/06/25 02:16:05;;;;;;;10.82;9.77;;;;;;;18.95;100.00;101873.81;5073704;28;20052;-37
2023/06/25 02:18:31;;;;;;;10.30;9.40;;;;;;;19.00;100.00;101879.34;5072965;28;20021;-37
2023/06/25 02:20:57;;;;;;;13.25;10.45;;;;;;;19.00;100.00;101881.25;5073066;28;20060;-37
2023/06/25 02:23:23;;;;;;;10.88;9.77;;;;;;;18.95;100.00;101873.81;5073045;28;20113;-37
2023/06/25 02:25:50;;;;;;;11.82;9.52;;;;;;;18.97;100.00;101873.56;5072738;28;20112;-37
2023/06/25 02:28:16;;;;;;;13.00;9.82;;;;;;;18.88;100.00;101880.59;5072986;28;20112;-37
2023/06/25 02:30:41;;;;;;;11.52;9.65;;;;;;;18.86;100.00;101874.56;5073101;28;20094;-37
2023/06/25 02:33:07;;;;;;;12.50;10.70;;;;;;;18.85;100.00;101872.94;5072394;28;20024;-37
2023/06/25 02:35:32;;;;;;;11.25;10.07;;;;;;;18.75;100.00;101859.97;5073111;28;20139;-37
2023/06/25 02:37:58;;;;;;;11.10;10.02;;;;;;;18.73;100.00;101860.19;5072857;28;20380;-37
2023/06/25 02:40:23;;;;;;;11.07;9.98;;;;;;;18.73;100.00;101862.94;5072555;28;20464;-37
2023/06/25 02:42:49;;;;;;;11.82;10.52;;;;;;;18.68;100.00;101868.38;5072520;28;20502;-37
2023/06/25 02:45:14;;;;;;;11.80;10.68;;;;;;;18.66;100.00;101866.97;5073263;28;20115;-37
2023/06/25 02:47:40;;;;;;;11.77;9.88;;;;;;;18.60;100.00;101862.53;5073271;28;20043;-37
2023/06/25 02:50:06;;;;;;;11.55;10.35;;;;;;;18.62;100.00;101863.09;5072365;28;20024;-37
2023/06/25 02:52:31;;;;;;;12.68;10.80;;;;;;;18.56;100.00;101864.97;5073020;28;20032;-37
2023/06/25 02:54:56;;;;;;;11.65;10.45;;;;;;;18.56;100.00;101859.50;5072686;28;20024;-40
2023/06/25 02:57:28;;;;;;;11.88;10.30;;;;;;;18.53;100.00;101857.25;5073397;28;20048;-37
2023/06/25 02:59:53;;;;;;;12.90;11.52;;;;;;;18.53;100.00;101855.34;5073434;28;20040;-37
2023/06/25 03:02:19;;;;;;;11.90;10.38;;;;;;;18.47;100.00;101861.88;5073029;28;20036;-37
2023/06/25 03:04:44;;;;;;;;;;;;;;;18.70;100.00;101860.75;5073493;28;20029;-37
2023/06/25 03:07:09;;;;;;;14.97;10.90;;;;;;;18.48;100.00;101859.94;5073140;28;19912;-37
2023/06/25 03:09:35;;;;;;;11.90;10.70;;;;;;;18.38;100.00;101852.47;5072550;28;20032;-37
2023/06/25 03:12:00;;;;;;;;;;;;;;;18.60;100.00;101852.41;5073388;28;20033;-37
2023/06/25 03:14:25;;;;;;;12.00;9.70;;;;;;;18.40;100.00;101855.78;5072492;28;19908;-37
2023/06/25 03:16:50;;;;;;;11.35;10.25;;;;;;;18.39;100.00;101858.75;5072741;28;20255;-37
2023/06/25 03:19:17;;;;;;;12.00;10.85;;;;;;;18.26;100.00;101846.31;5072506;28;20112;-37
2023/06/25 03:21:42;;;;;;;11.98;10.77;;;;;;;18.24;100.00;101846.56;5072371;28;20068;-37
2023/06/25 03:24:07;;;;;;;11.55;10.35;;;;;;;18.43;100.00;101851.69;5072113;28;20052;-37
2023/06/25 03:26:33;;;;;;;;;;;;;;;18.55;100.00;101848.81;5072822;28;20024;-37
2023/06/25 03:28:58;;;;;;;11.33;10.23;;;;;;;18.22;100.00;101837.78;5072532;28;19908;-37
2023/06/25 03:31:24;;;;;;;11.90;10.68;;;;;;;18.27;100.00;101851.53;5072803;28;20730;-38
2023/06/25 03:33:49;;;;;;;12.02;10.82;;;;;;;18.23;100.00;101844.91;5071989;28;20024;-37
2023/06/25 03:36:14;;;;;;;12.20;10.95;;;;;;;18.25;100.00;101845.50;5072340;28;20028;-37
2023/06/25 03:38:40;;;;;;;;;;;;;;;18.45;100.00;101849.53;5072648;28;20067;-37
2023/06/25 03:41:05;;;;;;;11.53;10.33;;;;;;;18.23;100.00;101842.19;5072193;28;20274;-38
2023/06/25 03:43:30;;;;;;;11.63;10.45;;;;;;;18.22;100.00;101845.19;5072467;28;20311;-37
2023/06/25 03:45:55;;;;;;;;;;;;;;;18.44;100.00;101843.19;5073849;28;20024;-37
2023/06/25 03:48:21;;;;;;;12.10;10.67;;;;;;;18.28;100.00;101833.19;5075856;28;19920;-38
2023/06/25 03:50:46;;;;;;;11.20;10.07;;;;;;;18.27;100.00;101835.09;5075758;28;20263;-37
2023/06/25 03:53:12;;;;;;;11.88;10.68;;;;;;;18.26;100.00;101836.19;5075455;28;20028;-37
2023/06/25 03:55:37;;;;;;;;;;;;;;;18.42;100.00;101825.41;5075892;28;20035;-37
2023/06/25 03:58:02;;;;;;;12.07;10.80;;;;;;;18.28;100.00;101831.28;5075386;28;19928;-37
2023/06/25 04:00:27;;;;;;;;;;;;;;;18.49;100.00;101836.94;5075806;28;20299;-37
2023/06/25 04:02:53;;;;;;;11.35;10.25;;;;;;;18.26;100.00;101838.94;5075667;28;19954;-37
2023/06/25 04:05:18;;;;;;;13.30;11.82;;;;;;;18.21;100.00;101838.06;5076270;28;20035;-37
2023/06/25 04:07:43;;;;;;;;;;;;;;;18.44;100.00;101839.63;5076904;28;20035;-37
2023/06/25 04:10:10;;;;;;;11.35;10.15;;;;;;;18.23;100.00;101839.44;5076024;28;19919;-37
2023/06/25 04:12:35;;;;;;;12.05;10.95;;;;;;;18.19;100.00;101830.09;5076158;28;20060;-37
2023/06/25 04:15:01;;;;;;;13.20;10.93;;;;;;;18.24;100.00;101835.63;5075034;28;20119;-37
2023/06/25 04:17:27;;;;;;;13.02;10.90;;;;;;;18.24;100.00;101829.31;5075856;28;20025;-37
2023/06/25 04:19:52;;;;;;;12.43;11.23;;;;;;;18.27;100.00;101835.09;5074980;28;20078;-37
2023/06/25 04:22:17;;;;;;;11.73;10.63;;;;;;;18.34;100.00;101834.06;5075603;28;20028;-37
2023/06/25 04:24:43;;;;;;;12.25;11.00;;;;;;;18.35;100.00;101836.56;5075703;28;20055;-37
2023/06/25 04:27:08;;;;;;;;;;;;;;;18.53;100.00;101843.56;5075465;28;20099;-37
2023/06/25 04:29:33;;;;;;;12.53;9.87;;;;;;;18.42;100.00;101830.88;5075643;28;19908;-37
2023/06/25 04:31:59;;;;;;;;;;;;;;;18.64;100.00;101839.00;5075603;28;20255;-37
2023/06/25 04:34:25;;;;;;;11.75;10.65;;;;;;;18.58;100.00;101837.31;5075064;28;19909;-37
2023/06/25 04:36:50;;;;;;;14.25;10.88;;;;;;;18.63;100.00;101827.22;5075261;28;20104;-36
2023/06/25 04:39:15;;;;;;;;;;;;;;;18.81;100.00;101833.44;5075356;28;20059;-36
2023/06/25 04:41:40;;;;;;;12.93;11.57;;;;;;;18.82;100.00;101835.06;5074772;28;20068;-36
2023/06/25 04:44:06;;;;;;;12.73;11.32;;;;;;;18.89;100.00;101832.94;5075113;28;20028;-37
2023/06/25 04:46:31;;;;;;;;;;;;;;;19.07;100.00;101835.25;5075318;28;20090;-37
2023/06/25 04:48:57;;;;;;;12.70;11.50;;;;;;;19.12;100.00;101839.94;5074836;28;20011;-37
2023/06/25 04:51:22;;;;;;;13.05;11.20;;;;;;;19.11;100.00;101821.84;5075613;28;20108;-37
2023/06/25 04:53:48;;;;;;;12.48;11.20;;;;;;;19.29;100.00;101830.47;5074783;28;20060;-37
2023/06/25 04:56:15;;;;;;;12.93;11.70;;;;;;;19.31;100.00;101835.69;5075119;28;20029;-37
2023/06/25 04:58:40;;;;;;;12.65;11.45;;;;;;;19.41;100.00;101833.00;5074211;28;20135;-37
2023/06/25 05:01:06;;;;;;;13.18;11.70;;;;;;;19.46;100.00;101832.19;5074882;28;20119;-37
2023/06/25 05:03:31;;;;;;;12.25;11.07;;;;;;;19.47;100.00;101831.09;5074614;28;20144;-37
2023/06/25 05:05:57;;;;;;;13.20;11.50;;;;;;;19.44;100.00;101820.69;5074818;28;20044;-37
2023/06/25 05:08:22;;;;;;;12.38;10.98;;;;;;;19.53;100.00;101830.06;5075100;28;20447;-37
2023/06/25 05:10:48;;;;;;;12.73;11.43;;;;;;;19.67;100.00;101828.50;5074977;28;20032;-37
2023/06/25 05:13:13;;;;;;;11.95;10.73;;;;;;;19.78;100.00;101821.94;5074218;28;20024;-37
2023/06/25 05:15:41;;;;;;;12.07;10.98;;;;;;;19.96;100.00;101844.50;5074832;28;20036;-37
2023/06/25 05:18:08;;;;;;;12.68;11.48;;;;;;;20.07;100.00;101826.97;5073909;28;20033;-37
2023/06/25 05:20:35;;;;;;;11.35;10.23;;;;;;;20.16;100.00;101839.09;5074146;28;20071;-37
2023/06/25 05:23:05;;;;;;;13.73;11.88;;;;;;;20.10;100.00;101820.94;5074062;28;20032;-37
2023/06/25 05:25:34;;;;;;;12.10;11.00;;;;;;;20.20;100.00;101840.16;5073859;28;20081;-37
2023/06/25 05:28:03;;;;;;;13.70;11.02;;;;;;;20.37;100.00;101830.88;5074029;28;20056;-37
2023/06/25 05:30:30;;;;;;;13.05;11.80;;;;;;;20.39;100.00;101834.16;5074004;28;20036;-37
2023/06/25 05:32:55;;;;;;;12.07;10.88;;;;;;;20.52;100.00;101833.66;5073512;28;20032;-37
2023/06/25 05:35:21;;;;;;;12.05;10.85;;;;;;;20.61;100.00;101828.47;5074045;28;20031;-37
2023/06/25 05:37:47;;;;;;;14.57;11.05;;;;;;;20.74;99.21;101820.50;5073938;28;20032;-37
2023/06/25 05:40:13;;;;;;;12.00;10.57;;;;;;;20.79;91.36;101827.91;5074273;28;20021;-37
2023/06/25 05:42:38;;;;;;;10.82;9.75;;;;;;;20.89;93.79;101814.16;5074225;28;20397;-37
2023/06/25 05:45:04;;;;;;;11.52;10.43;;;;;;;21.08;93.46;101833.63;5073204;28;20099;-37
2023/06/25 05:47:29;;;;;;;14.32;10.05;;;;;;;21.19;93.14;101820.69;5073437;28;20035;-37
2023/06/25 05:49:54;;;;;;;10.60;9.48;;;;;;;21.23;92.46;101819.88;5073489;28;20035;-37
2023/06/25 05:52:20;;;;;;;10.60;9.60;;;;;;;21.39;91.22;101822.59;5074009;28;20108;-37
2023/06/25 05:54:45;;;;;;;11.40;10.30;;;;;;;21.42;90.14;101822.03;5073844;28;20021;-37
2023/06/25 05:57:12;;;;;;;13.13;10.18;;;;;;;21.47;86.75;101817.34;5073673;28;20028;-37
2023/06/25 05:59:37;;;;;;;10.60;9.60;;;;;;;21.44;85.62;101804.16;5073455;28;20124;-37
2023/06/25 06:02:03;;;;;;;9.98;9.07;;;;;;;21.64;86.96;101808.75;5073596;28;20063;-37
2023/06/25 06:04:28;;;;;;;11.50;10.40;;;;;;;21.66;89.15;101808.44;5073292;28;20028;-37
2023/06/25 06:06:53;;;;;;;12.10;10.57;;;;;;;21.52;86.09;101800.81;5073754;28;20052;-37
2023/06/25 06:09:19;;;;;;;11.18;9.90;;;;;;;21.64;88.90;101802.41;5073210;28;20024;-37
2023/06/25 06:11:44;;;;;;;10.82;9.73;;;;;;;21.70;87.79;101804.03;5073301;28;20028;-37
2023/06/25 06:14:10;;;;;;;19.58;10.10;;;;;;;21.82;89.42;101810.03;5073417;28;20052;-38
2023/06/25 06:16:35;;;;;;;10.05;8.98;;;;;;;21.87;81.90;101800.94;5072464;28;20181;-37
2023/06/25 06:19:01;;;;;;;12.52;9.13;;;;;;;22.00;82.10;101816.81;5073422;28;20025;-37
2023/06/25 06:21:26;;;;;;;9.70;8.77;;;;;;;22.06;83.13;101810.19;5073249;28;20028;-37
2023/06/25 06:23:52;;;;;;;10.00;9.00;;;;;;;22.06;82.48;101802.75;5073141;28;20574;-37
2023/06/25 06:26:17;;;;;;;10.82;9.65;;;;;;;22.15;82.53;101814.00;5072885;28;20356;-37
2023/06/25 06:28:43;;;;;;;11.38;9.35;;;;;;;22.27;82.43;101817.22;5072680;28;20021;-38
2023/06/25 06:31:08;;;;;;;11.45;9.27;;;;;;;22.34;80.36;101812.19;5073161;28;20020;-37
2023/06/25 06:33:34;;;;;;;11.30;10.20;;;;;;;22.42;81.53;101818.22;5072874;28;20217;-37
2023/06/25 06:35:59;;;;;;;10.85;9.52;;;;;;;22.43;80.86;101806.09;5072752;28;20040;-37
2023/06/25 06:38:25;;;;;;;10.68;9.57;;;;;;;22.48;78.80;101806.06;5072731;28;20036;-37
2023/06/25 06:40:50;;;;;;;12.20;9.15;;;;;;;22.51;78.59;101802.72;5073410;28;20074;-37
2023/06/25 06:43:15;;;;;;;10.82;9.73;;;;;;;22.71;79.66;101797.03;5072500;28;20032;-37
2023/06/25 06:45:41;;;;;;;12.70;10.32;;;;;;;22.71;77.72;101804.47;5072831;28;20028;-37
2023/06/25 06:48:07;;;;;;;10.85;9.75;;;;;;;22.77;79.04;101806.06;5072988;28;20472;-37
2023/06/25 06:50:32;;;;;;;10.27;9.05;;;;;;;22.79;75.28;101801.09;5072518;28;20040;-37
2023/06/25 06:52:58;;;;;;;12.38;10.05;;;;;;;22.84;78.30;101799.13;5072575;28;20025;-37
2023/06/25 06:55:23;;;;;;;10.23;9.20;;;;;;;22.95;77.85;101799.06;5072980;28;20028;-37
2023/06/25 06:57:49;;;;;;;10.48;9.38;;;;;;;23.00;77.58;101793.47;5072521;28;20060;-37
2023/06/25 07:00:15;;;;;;;10.95;9.85;;;;;;;23.08;75.46;101798.34;5072168;28;20043;-37
2023/06/25 07:02:41;;;;;;;11.05;9.82;;;;;;;23.09;76.81;101791.72;5072699;28;20024;-37
2023/06/25 07:05:06;;;;;;;11.32;10.23;;;;;;;23.09;76.11;101784.28;5072899;28;20491;-37
2023/06/25 07:07:32;;;;;;;11.13;10.02;;;;;;;23.17;76.63;101785.56;5072840;28;20036;-38
2023/06/25 07:09:57;;;;;;;10.82;9.73;;;;;;;23.26;75.13;101789.31;5072529;28;20139;-38
2023/06/25 07:12:23;;;;;;;11.13;9.93;;;;;;;23.35;74.86;101793.06;5072895;28;20037;-37
2023/06/25 07:14:48;;;;;;;11.60;10.30;;;;;;;23.37;74.00;101801.06;5073267;28;20365;-37
2023/06/25 07:17:13;;;;;;;11.75;10.50;;;;;;;23.45;75.52;101792.13;5072667;28;20120;-37
2023/06/25 07:19:39;;;;;;;11.23;10.13;;;;;;;23.53;72.87;101797.00;5072234;28;20068;-37
2023/06/25 07:22:05;;;;;;;11.30;10.20;;;;;;;23.56;74.34;101792.81;5076529;28;20033;-37
2023/06/25 07:24:30;;;;;;;11.57;10.38;;;;;;;23.61;75.75;101799.09;5076549;28;20036;-37
2023/06/25 07:26:55;;;;;;;11.35;10.25;;;;;;;23.67;73.75;101791.63;5076199;28;20024;-37
2023/06/25 07:29:21;;;;;;;12.15;9.95;;;;;;;23.73;73.59;101803.41;5076315;28;20066;-37
2023/06/25 07:31:46;;;;;;;12.55;11.23;;;;;;;23.80;71.89;101795.56;5076880;28;20051;-37
2023/06/25 07:34:11;;;;;;;11.38;10.18;;;;;;;23.79;73.67;101792.00;5076218;28;20036;-38
2023/06/25 07:36:37;;;;;;;12.90;10.93;;;;;;;23.76;73.27;101783.47;5076228;28;20028;-37
2023/06/25 07:39:04;;;;;;;10.90;9.80;;;;;;;23.94;72.71;101790.97;5075737;28;20034;-37
2023/06/25 07:41:29;;;;;;;10.15;9.23;;;;;;;23.99;74.17;101782.59;5075811;28;20527;-37
2023/06/25 07:43:55;;;;;;;10.55;9.25;;;;;;;24.04;70.58;101782.53;5076711;28;20029;-37
2023/06/25 07:46:22;;;;;;;10.93;9.35;;;;;;;24.12;71.20;101781.03;5076246;28;20032;-37
2023/06/25 07:48:47;;;;;;;10.05;8.00;;;;;;;24.25;68.08;101785.78;5075759;28;20016;-37
2023/06/25 07:51:13;;;;;;;8.70;7.47;;;;;;;24.31;69.41;101789.31;5076205;28;20024;-37
2023/06/25 07:53:38;;;;;;;7.85;7.05;;;;;;;24.48;67.29;101778.53;5075825;28;20036;-37
2023/06/25 07:56:03;;;;;;;9.38;7.22;;;;;;;24.58;68.09;101766.47;5075720;28;20032;-37
2023/06/25 07:58:29;;;;;;;6.85;6.25;;;;;;;24.59;67.90;101780.00;5075765;28;20086;-37
2023/06/25 08:00:55;;;;;;;8.27;7.15;;;;;;;24.67;66.18;101775.72;5075595;28;20070;-37
2023/06/25 08:03:21;;;;;;;7.25;6.53;;;;;;;24.71;65.07;101770.41;5075372;28;20021;-37
2023/06/25 08:05:47;;;;;;;9.00;6.88;;;;;;;24.73;65.61;101768.16;5075379;28;20036;-38
2023/06/25 08:08:12;;;;;;;11.48;6.93;;;;;;;24.81;68.59;101768.28;5075881;28;20040;-38
2023/06/25 08:10:38;;;;;;;7.22;6.53;;;;;;;24.85;67.92;101762.97;5075919;28;20024;-37
2023/06/25 08:13:03;;;;;;;7.78;6.97;;;;;;;25.00;64.86;101768.22;5075421;28;20039;-37
2023/06/25 08:15:28;;;;;;;7.57;6.57;;;;;;;25.01;63.35;101761.53;5075966;28;20098;-38
2023/06/25 08:17:54;;;;;;;7.07;5.72;;;;;;;25.19;67.58;101764.56;5075469;28;20052;-38
2023/06/25 08:20:19;;;;;;;7.60;5.68;;;;;;;25.14;63.72;101768.25;5074085;28;20028;-38
2023/06/25 08:22:44;;;;;;;6.78;5.35;;;;;;;25.27;62.69;101761.06;5075260;28;20031;-38
2023/06/25 08:25:26;;;;;;;5.60;4.95;;;;;;;25.40;63.94;101758.28;5075147;28;20111;-38
2023/06/25 08:27:52;;;;;;;7.93;5.20;;;;;;;25.58;65.43;101759.28;5075686;28;20024;-38
2023/06/25 08:30:18;;;;;;;6.75;5.43;;;;;;;25.67;65.31;101756.63;5074897;28;20122;-38
2023/06/25 08:32:43;;;;;;;6.20;5.60;;;;;;;25.77;62.19;101755.56;5074966;28;20090;-37
2023/06/25 08:35:09;;;;;;;5.97;5.38;;;;;;;25.77;64.49;101750.03;5075137;28;20037;-37
2023/06/25 08:37:34;;;;;;;6.90;6.00;;;;;;;25.77;62.08;101744.50;5075455;28;20479;-37
2023/06/25 08:39:59;;;;;;;6.85;5.50;;;;;;;25.72;66.44;101744.56;5074705;28;20029;-37
2023/06/25 08:42:26;;;;;;;6.32;5.40;;;;;;;25.83;63.40;101748.81;5075432;28;20056;-37
2023/06/25 08:44:52;;;;;;;4.95;4.45;;;;;;;25.94;64.57;101733.56;5075451;28;20032;-36
2023/06/25 08:47:19;;;;;;;8.27;5.50;;;;;;;26.11;62.51;101742.03;5075037;28;20035;-36
2023/06/25 08:49:49;;;;;;;8.30;5.05;;;;;;;26.24;61.24;101734.78;5074907;28;20533;-37
2023/06/25 08:52:15;;;;;;;7.47;4.53;;;;;;;26.39;62.95;101739.09;5075171;28;20020;-37
2023/06/25 08:54:43;;;;;;;5.13;4.25;;;;;;;26.37;63.93;101724.75;5073696;28;20033;-37
2023/06/25 08:57:08;;;;;;;5.57;3.95;;;;;;;26.60;61.91;101739.44;5074714;28;20082;-37
2023/06/25 08:59:34;;;;;;;5.03;3.40;;;;;;;26.58;60.68;101728.66;5074840;28;20052;-37
2023/06/25 09:01:59;;;;;;;3.55;3.25;;;;;;;26.75;58.57;101735.44;5074356;28;20408;-37
2023/06/25 09:04:24;;;;;;;4.68;3.97;;;;;;;26.79;57.39;101731.72;5074094;28;20380;-37
2023/06/25 09:06:50;;;;;;;4.82;3.70;;;;;;;27.00;57.39;101733.91;5074546;28;20033;-37
2023/06/25 09:09:15;;;;;;;5.75;3.55;;;;;;;27.19;57.37;101729.78;5074190;28;20178;-37
2023/06/25 09:11:40;;;;;;;6.85;3.08;;;;;;;27.32;56.25;101730.75;5074821;28;20032;-37
2023/06/25 09:14:06;;;;;;;4.20;3.15;;;;;;;27.42;54.39;101727.69;5074050;28;20411;-37
2023/06/25 09:16:32;;;;;;;4.20;3.60;;;;;;;27.61;55.89;101732.13;5074159;28;20494;-37
2023/06/25 09:19:00;;;;;;;4.20;3.25;;;;;;;27.85;54.63;101731.69;5074845;28;20077;-38
2023/06/25 09:21:35;;;;;;;4.60;3.63;;;;;;;28.00;55.17;101722.03;5074939;28;20028;-38
2023/06/25 09:24:17;;;;;;;3.17;2.85;;;;;;;28.11;55.00;101706.63;5074269;28;20029;-38
2023/06/25 09:26:50;;;;;;;3.92;3.40;;;;;;;28.25;54.22;101721.19;5074658;28;20381;-38
2023/06/25 09:29:17;;;;;;;3.70;3.25;;;;;;;28.30;53.21;101717.41;5073934;28;20021;-38
2023/06/25 09:31:43;;;;;;;3.45;3.00;;;;;;;28.43;52.31;101711.69;5074269;28;20028;-38
2023/06/25 09:34:10;;;;;;;4.30;3.05;;;;;;;28.59;53.12;101720.31;5074165;28;20031;-38
2023/06/25 09:36:36;;;;;;;4.82;2.90;;;;;;;28.80;53.17;101709.28;5073851;28;20054;-38
2023/06/25 09:39:03;;;;;;;6.30;3.13;;;;;;;28.87;50.65;101714.31;5073568;28;20050;-38
2023/06/25 09:41:29;;;;;;;4.40;2.65;;;;;;;28.94;51.12;101707.13;5074582;28;20384;-38
2023/06/25 09:43:56;;;;;;;4.00;3.42;;;;;;;29.02;51.59;101696.25;5072612;28;20043;-38
2023/06/25 09:46:22;;;;;;;3.95;2.58;;;;;;;29.08;50.37;101711.63;5074197;28;20032;-38
2023/06/25 09:48:51;;;;;;;3.22;2.92;;;;;;;29.08;49.61;101697.69;5073664;28;20392;-38
2023/06/25 09:51:19;;;;;;;3.70;2.83;;;;;;;29.38;50.30;101702.13;5073712;28;20456;-38
2023/06/25 09:53:52;;;;;;;3.00;2.35;;;;;;;29.31;49.48;101704.59;5073907;28;20047;-38
2023/06/25 09:56:20;;;;;;;3.45;2.72;;;;;;;29.26;48.97;101699.22;5073488;28;20093;-38
2023/06/25 09:58:46;;;;;;;5.65;2.83;;;;;;;29.38;52.34;101702.13;5073209;28;20464;-38
2023/06/25 10:01:11;;;;;;;4.05;2.92;;;;;;;29.44;49.48;101695.19;5073399;28;20038;-37
2023/06/25 10:03:36;;;;;;;4.53;2.42;;;;;;;29.62;49.32;101695.88;5073353;28;20107;-37
2023/06/25 10:06:03;;;;;;;4.05;3.25;;;;;;;29.51;52.31;101701.00;5073633;28;20033;-37
2023/06/25 10:08:31;;;;;;;5.60;3.00;;;;;;;29.53;48.58;101697.91;5073522;28;20025;-37
2023/06/25 10:11:00;;;;;;;4.35;3.05;;;;;;;29.74;48.00;101692.34;5073761;28;20039;-37
2023/06/25 10:13:26;;;;;;;3.33;3.03;;;;;;;29.72;47.28;101689.06;5073360;28;20073;-37
2023/06/25 10:16:02;;;;;;;3.88;2.70;;;;;;;29.65;49.59;101669.31;5073410;28;20086;-37
2023/06/25 10:18:28;;;;;;;3.13;2.83;;;;;;;29.79;48.18;101680.19;5072960;28;20033;-37
2023/06/25 10:20:58;;;;;;;7.35;2.85;;;;;;;29.92;48.83;101674.31;5073154;28;20024;-37
2023/06/25 10:23:24;;;;;;;5.15;2.83;;;;;;;29.92;47.34;101665.97;5072718;28;20459;-37
2023/06/25 10:25:57;;;;;;;3.30;2.75;;;;;;;30.01;46.80;101663.91;5073156;28;20099;-37
2023/06/25 10:28:31;;;;;;;5.63;2.75;;;;;;;30.15;46.63;101671.97;5073085;28;20024;-38
2023/06/25 10:30:57;;;;;;;2.65;2.30;;;;;;;30.11;47.19;101668.22;5073785;28;20036;-38
2023/06/25 10:33:23;;;;;;;2.90;2.58;;;;;;;30.13;45.68;101665.94;5073481;28;20032;-38
2023/06/25 10:35:58;;;;;;;3.95;3.03;;;;;;;30.11;46.17;101653.44;5073646;28;20081;-38
2023/06/25 10:38:24;;;;;;;3.57;2.73;;;;;;;30.29;44.75;101652.13;5073026;28;20031;-38
2023/06/25 10:40:50;;;;;;;2.65;2.45;;;;;;;30.40;44.53;101656.09;5073120;28;20028;-38
2023/06/25 10:43:19;;;;;;;3.58;2.97;;;;;;;30.55;43.52;101660.22;5073002;28;20528;-38
2023/06/25 10:45:52;;;;;;;3.90;2.70;;;;;;;30.59;45.69;101649.16;5073299;28;20416;-38
2023/06/25 10:48:18;;;;;;;3.05;2.70;;;;;;;30.65;42.31;101650.53;5072908;28;20039;-38
2023/06/25 10:50:44;;;;;;;4.75;3.05;;;;;;;30.81;43.40;101651.53;5073049;28;20036;-38
2023/06/25 10:53:13;;;;;;;3.20;2.70;;;;;;;30.77;42.94;101647.78;5073225;28;20099;-38
2023/06/25 10:55:43;;;;;;;4.40;2.90;;;;;;;30.88;42.15;101640.56;5073441;28;20099;-38
2023/06/25 10:58:09;;;;;;;5.53;2.78;;;;;;;30.86;39.61;101623.38;5072680;28;20392;-38
2023/06/25 11:00:34;;;;;;;2.72;2.20;;;;;;;31.03;40.28;101634.25;5073076;28;20041;-38
2023/06/25 11:03:00;;;;;;;2.38;2.10;;;;;;;31.14;41.69;101628.22;5072708;28;20028;-38
2023/06/25 11:05:37;;;;;;;6.00;2.30;;;;;;;31.14;41.54;101637.41;5073165;28;20033;-38
2023/06/25 11:08:09;;;;;;;2.80;2.42;;;;;;;31.31;40.28;101630.75;5073317;28;20387;-38
2023/06/25 11:10:37;;;;;;;5.28;2.53;;;;;;;31.20;39.32;101629.59;5073313;28;20381;-38
2023/06/25 11:13:03;;;;;;;3.08;2.38;;;;;;;31.25;38.38;101632.16;5072802;28;20034;-38